BAW247 EGLL-SBGR
Flight info
| Callsign | BAW247 |
|---|---|
| Flight time | N/A |
| Altitude | 34000 |
| Route | GASGU N514 ADKIK DCT JOZMA DCT GAPLI/M085F340 DCT EVBAK DCT TAMEL DCT GONAN DCT 40N017W 35N020W DCT RIPOD/N0511F290 DCT GOBEG/M085F360 DCT BAMUX/N0496F360 DCT TARIM DCT PINRU/N0494F370 UN741 NANIK/N0491F380 UN741 ERUGU UZ61 EVPIV/N0486F400 UZ61 REDAD UZ21 VUNOX |
| Aircraft | A35K/H-SDE2E3GHIJ3J4J5LM1ORWXY/LB1D1 |
Departure
| Time | 2026-05-06 21:38 |
|---|---|
| Airport | London Heathrow Airport (EGLL) |
Arrival
| Time | N/A |
|---|---|
| Airport | São Paulo/Guarulhos–Governor André Franco Montoro International Airport (SBGR) |
| Time | Latitude | Longitude | Altitude | Speed | Heading |
|---|---|---|---|---|---|
| 2026-05-06 20:49 | 51.47318 | -0.46599 | 93 ft | 0 kts | 89° |
| 2026-05-06 21:24 | 51.47318 | -0.46623 | 94 ft | 4 kts | 96° |
| 2026-05-06 21:24 | 51.47323 | -0.46665 | 94 ft | 4 kts | 113° |
| 2026-05-06 21:25 | 51.47337 | -0.46701 | 91 ft | 4 kts | 137° |
| 2026-05-06 21:25 | 51.47359 | -0.46724 | 91 ft | 4 kts | 165° |
| 2026-05-06 21:25 | 51.47375 | -0.46729 | 92 ft | 0 kts | 179° |
| 2026-05-06 21:30 | 51.47371 | -0.46728 | 92 ft | 4 kts | 179° |
| 2026-05-06 21:30 | 51.47295 | -0.46717 | 93 ft | 17 kts | 171° |
| 2026-05-06 21:31 | 51.47178 | -0.46714 | 97 ft | 18 kts | 183° |
| 2026-05-06 21:31 | 51.47077 | -0.46745 | 96 ft | 13 kts | 219° |
| 2026-05-06 21:31 | 51.47048 | -0.46833 | 96 ft | 2 kts | 224° |
| 2026-05-06 21:31 | 51.47048 | -0.46834 | 96 ft | 1 kts | 222° |
| 2026-05-06 21:32 | 51.47002 | -0.46860 | 96 ft | 13 kts | 186° |
| 2026-05-06 21:32 | 51.46820 | -0.46860 | 93 ft | 5 kts | 185° |
| 2026-05-06 21:32 | 51.46726 | -0.46865 | 95 ft | 17 kts | 180° |
| 2026-05-06 21:33 | 51.46660 | -0.46967 | 97 ft | 15 kts | 257° |
| 2026-05-06 21:33 | 51.46641 | -0.47153 | 95 ft | 17 kts | 282° |
| 2026-05-06 21:33 | 51.46648 | -0.47334 | 95 ft | 17 kts | 265° |
| 2026-05-06 21:33 | 51.46637 | -0.47520 | 96 ft | 16 kts | 282° |
| 2026-05-06 21:34 | 51.46648 | -0.47701 | 95 ft | 17 kts | 271° |
| 2026-05-06 21:34 | 51.46650 | -0.47893 | 92 ft | 18 kts | 270° |
| 2026-05-06 21:34 | 51.46651 | -0.48087 | 93 ft | 18 kts | 270° |
| 2026-05-06 21:34 | 51.46651 | -0.48289 | 95 ft | 19 kts | 270° |
| 2026-05-06 21:35 | 51.46651 | -0.48414 | 96 ft | 19 kts | 270° |
| 2026-05-06 21:35 | 51.46650 | -0.48595 | 96 ft | 19 kts | 269° |
| 2026-05-06 21:35 | 51.46625 | -0.48739 | 97 ft | 9 kts | 229° |
| 2026-05-06 21:35 | 51.46594 | -0.48769 | 96 ft | 0 kts | 205° |
| 2026-05-06 21:36 | 51.46567 | -0.48780 | 96 ft | 8 kts | 188° |
| 2026-05-06 21:36 | 51.46499 | -0.48748 | 97 ft | 10 kts | 140° |
| 2026-05-06 21:36 | 51.46491 | -0.48732 | 97 ft | 3 kts | 126° |
| 2026-05-06 21:37 | 51.46481 | -0.48676 | 97 ft | 8 kts | 101° |
| 2026-05-06 21:37 | 51.46479 | -0.48551 | 95 ft | 10 kts | 87° |
| 2026-05-06 21:37 | 51.46479 | -0.48523 | 94 ft | 3 kts | 90° |
| 2026-05-06 21:37 | 51.46481 | -0.48310 | 95 ft | 47 kts | 89° |
| 2026-05-06 21:38 | 51.46484 | -0.47394 | 95 ft | 116 kts | 90° |
| 2026-05-06 21:38 | 51.46494 | -0.45795 | 96 ft | 173 kts | 91° |
| 2026-05-06 21:38 | 51.46508 | -0.43782 | 667 ft | 181 kts | 89° |
| 2026-05-06 21:38 | 51.46477 | -0.41764 | 1488 ft | 183 kts | 92° |
| 2026-05-06 21:39 | 51.46381 | -0.39681 | 2128 ft | 187 kts | 94° |
| 2026-05-06 21:39 | 51.45841 | -0.37708 | 2358 ft | 207 kts | 135° |
| 2026-05-06 21:39 | 51.44506 | -0.36698 | 2649 ft | 221 kts | 168° |
| 2026-05-06 21:39 | 51.42957 | -0.36456 | 3137 ft | 227 kts | 179° |
| 2026-05-06 21:40 | 51.41404 | -0.36728 | 3616 ft | 230 kts | 194° |
| 2026-05-06 21:40 | 51.39872 | -0.37509 | 4118 ft | 231 kts | 200° |
| 2026-05-06 21:40 | 51.38352 | -0.38365 | 4663 ft | 232 kts | 199° |
| 2026-05-06 21:40 | 51.36788 | -0.39209 | 5084 ft | 241 kts | 199° |
| 2026-05-06 21:41 | 51.35193 | -0.40211 | 5335 ft | 258 kts | 206° |
| 2026-05-06 21:41 | 51.33582 | -0.41676 | 5775 ft | 268 kts | 216° |
| 2026-05-06 21:41 | 51.32125 | -0.43562 | 5952 ft | 270 kts | 225° |
| 2026-05-06 21:41 | 51.30893 | -0.45815 | 5977 ft | 268 kts | 234° |
| 2026-05-06 21:42 | 51.29909 | -0.48297 | 5968 ft | 268 kts | 246° |
| 2026-05-06 21:42 | 51.29293 | -0.51091 | 5974 ft | 267 kts | 255° |
| 2026-05-06 21:42 | 51.28954 | -0.53029 | 5973 ft | 267 kts | 256° |
| 2026-05-06 21:42 | 51.28458 | -0.55890 | 5972 ft | 267 kts | 255° |
| 2026-05-06 21:43 | 51.27783 | -0.59645 | 5974 ft | 267 kts | 254° |
| 2026-05-06 21:43 | 51.27227 | -0.62511 | 5974 ft | 268 kts | 253° |
| 2026-05-06 21:43 | 51.26673 | -0.65342 | 5972 ft | 268 kts | 253° |
| 2026-05-06 21:43 | 51.26302 | -0.67261 | 5975 ft | 267 kts | 255° |
| 2026-05-06 21:44 | 51.26028 | -0.70149 | 6157 ft | 267 kts | 271° |
| 2026-05-06 21:44 | 51.26376 | -0.73047 | 6678 ft | 268 kts | 294° |
| 2026-05-06 21:44 | 51.27448 | -0.75434 | 7364 ft | 267 kts | 320° |
| 2026-05-06 21:44 | 51.29102 | -0.76765 | 8012 ft | 271 kts | 349° |
| 2026-05-06 21:45 | 51.30979 | -0.76641 | 8679 ft | 275 kts | 14° |
| 2026-05-06 21:45 | 51.32787 | -0.75594 | 9359 ft | 279 kts | 24° |
| 2026-05-06 21:45 | 51.34528 | -0.74159 | 10056 ft | 282 kts | 28° |
| 2026-05-06 21:45 | 51.36262 | -0.72584 | 10535 ft | 292 kts | 28° |
| 2026-05-06 21:46 | 51.38075 | -0.70962 | 10939 ft | 305 kts | 27° |
| 2026-05-06 21:46 | 51.40020 | -0.69481 | 11325 ft | 316 kts | 18° |
| 2026-05-06 21:46 | 51.42208 | -0.68863 | 11735 ft | 325 kts | 358° |
| 2026-05-06 21:46 | 51.44431 | -0.69643 | 12103 ft | 335 kts | 333° |
| 2026-05-06 21:47 | 51.46279 | -0.71962 | 12458 ft | 346 kts | 308° |
| 2026-05-06 21:47 | 51.47392 | -0.75427 | 12809 ft | 358 kts | 285° |
| 2026-05-06 21:47 | 51.47559 | -0.79450 | 13123 ft | 371 kts | 263° |
| 2026-05-06 21:47 | 51.46724 | -0.83390 | 13546 ft | 381 kts | 240° |
| 2026-05-06 21:48 | 51.44995 | -0.86634 | 14056 ft | 389 kts | 219° |
| 2026-05-06 21:48 | 51.42615 | -0.88708 | 14559 ft | 395 kts | 199° |
| 2026-05-06 21:48 | 51.39883 | -0.89326 | 15106 ft | 400 kts | 178° |
| 2026-05-06 21:48 | 51.37107 | -0.88870 | 15670 ft | 403 kts | 173° |
| 2026-05-06 21:49 | 51.34313 | -0.88308 | 16215 ft | 406 kts | 174° |
| 2026-05-06 21:49 | 51.31488 | -0.88270 | 16758 ft | 407 kts | 188° |
| 2026-05-06 21:49 | 51.28742 | -0.89301 | 17321 ft | 407 kts | 200° |
| 2026-05-06 21:49 | 51.26135 | -0.91090 | 17892 ft | 409 kts | 208° |
| 2026-05-06 21:50 | 51.23649 | -0.93337 | 18444 ft | 411 kts | 213° |
| 2026-05-06 21:50 | 51.21277 | -0.95915 | 18956 ft | 414 kts | 220° |
| 2026-05-06 21:50 | 51.19197 | -0.99073 | 19489 ft | 415 kts | 228° |
| 2026-05-06 21:50 | 51.17285 | -1.02564 | 20023 ft | 418 kts | 231° |
| 2026-05-06 21:51 | 51.15480 | -1.06208 | 20531 ft | 421 kts | 233° |
| 2026-05-06 21:51 | 51.13712 | -1.09931 | 21041 ft | 423 kts | 234° |
| 2026-05-06 21:51 | 51.11962 | -1.13648 | 21563 ft | 426 kts | 234° |
| 2026-05-06 21:51 | 51.10170 | -1.17425 | 22085 ft | 429 kts | 233° |
| 2026-05-06 21:52 | 51.08350 | -1.21214 | 22604 ft | 432 kts | 233° |
| 2026-05-06 21:52 | 51.06511 | -1.25010 | 23104 ft | 435 kts | 233° |
| 2026-05-06 21:52 | 51.04649 | -1.28818 | 23622 ft | 438 kts | 233° |
| 2026-05-06 21:52 | 51.02765 | -1.32648 | 24051 ft | 441 kts | 233° |
| 2026-05-06 21:53 | 51.01042 | -1.36676 | 24484 ft | 442 kts | 241° |
| 2026-05-06 21:53 | 50.99715 | -1.41090 | 24906 ft | 444 kts | 250° |
| 2026-05-06 21:53 | 50.98733 | -1.45738 | 25331 ft | 446 kts | 253° |
| 2026-05-06 21:53 | 50.97866 | -1.50483 | 25755 ft | 448 kts | 255° |
| 2026-05-06 21:54 | 50.97058 | -1.55260 | 26186 ft | 450 kts | 256° |
| 2026-05-06 21:54 | 50.96264 | -1.60081 | 26584 ft | 453 kts | 256° |
| 2026-05-06 21:54 | 50.95464 | -1.64929 | 27000 ft | 455 kts | 256° |
| 2026-05-06 21:54 | 50.94650 | -1.69789 | 27393 ft | 457 kts | 255° |
| 2026-05-06 21:55 | 50.93821 | -1.74666 | 27788 ft | 460 kts | 255° |
| 2026-05-06 21:55 | 50.92978 | -1.79568 | 28173 ft | 462 kts | 255° |
| 2026-05-06 21:55 | 50.92124 | -1.84493 | 28561 ft | 464 kts | 255° |
| 2026-05-06 21:55 | 50.91264 | -1.89424 | 28913 ft | 466 kts | 255° |
| 2026-05-06 21:56 | 50.90395 | -1.94393 | 29229 ft | 469 kts | 255° |
| 2026-05-06 21:56 | 50.89519 | -1.99384 | 29550 ft | 471 kts | 255° |
| 2026-05-06 21:56 | 50.88639 | -2.04413 | 29903 ft | 473 kts | 255° |
| 2026-05-06 21:56 | 50.87758 | -2.09425 | 30302 ft | 472 kts | 255° |
| 2026-05-06 21:57 | 50.86875 | -2.14416 | 30692 ft | 471 kts | 255° |
| 2026-05-06 21:57 | 50.85991 | -2.19399 | 31027 ft | 471 kts | 255° |
| 2026-05-06 21:57 | 50.85102 | -2.24392 | 31371 ft | 470 kts | 255° |
| 2026-05-06 21:57 | 50.84218 | -2.29348 | 31720 ft | 469 kts | 255° |
| 2026-05-06 21:58 | 50.83330 | -2.34312 | 32038 ft | 469 kts | 255° |
| 2026-05-06 21:58 | 50.82441 | -2.39275 | 32345 ft | 468 kts | 255° |
| 2026-05-06 21:58 | 50.81553 | -2.44221 | 32636 ft | 468 kts | 255° |
| 2026-05-06 21:58 | 50.80661 | -2.49171 | 32927 ft | 468 kts | 255° |
| 2026-05-06 21:59 | 50.79816 | -2.54129 | 33207 ft | 467 kts | 258° |
| 2026-05-06 21:59 | 50.79163 | -2.59155 | 33480 ft | 467 kts | 259° |
| 2026-05-06 21:59 | 50.78555 | -2.64186 | 33752 ft | 466 kts | 260° |
| 2026-05-06 21:59 | 50.77973 | -2.69165 | 33980 ft | 467 kts | 260° |
| 2026-05-06 22:00 | 50.76798 | -2.79331 | 34029 ft | 473 kts | 260° |
| 2026-05-06 22:00 | 50.75608 | -2.89536 | 34031 ft | 471 kts | 260° |
| 2026-05-06 22:01 | 50.74406 | -2.99695 | 34014 ft | 471 kts | 260° |
| 2026-05-06 22:01 | 50.73191 | -3.09859 | 34012 ft | 471 kts | 260° |
| 2026-05-06 22:02 | 50.71965 | -3.20030 | 34030 ft | 471 kts | 259° |
| 2026-05-06 22:02 | 50.70733 | -3.30176 | 34022 ft | 471 kts | 259° |
| 2026-05-06 22:03 | 50.69489 | -3.40344 | 34029 ft | 472 kts | 259° |
| 2026-05-06 22:03 | 50.68239 | -3.50489 | 34011 ft | 472 kts | 259° |
| 2026-05-06 22:04 | 50.66978 | -3.60641 | 34026 ft | 472 kts | 259° |
| 2026-05-06 22:04 | 50.65708 | -3.70787 | 34027 ft | 472 kts | 259° |
| 2026-05-06 22:05 | 50.64432 | -3.80916 | 34023 ft | 472 kts | 259° |
| 2026-05-06 22:05 | 50.63150 | -3.91003 | 34015 ft | 472 kts | 259° |
| 2026-05-06 22:06 | 50.61840 | -4.01116 | 34023 ft | 472 kts | 258° |
| 2026-05-06 22:06 | 50.60452 | -4.11210 | 34011 ft | 472 kts | 258° |
| 2026-05-06 22:07 | 50.59047 | -4.21302 | 34023 ft | 472 kts | 258° |
| 2026-05-06 22:07 | 50.57642 | -4.31400 | 34017 ft | 473 kts | 258° |
| 2026-05-06 22:08 | 50.56242 | -4.41453 | 34009 ft | 473 kts | 258° |
| 2026-05-06 22:08 | 50.54818 | -4.51614 | 34018 ft | 473 kts | 258° |
| 2026-05-06 22:09 | 50.53404 | -4.61632 | 34016 ft | 473 kts | 258° |
| 2026-05-06 22:09 | 50.51974 | -4.71691 | 34016 ft | 473 kts | 258° |
| 2026-05-06 22:10 | 50.50527 | -4.81804 | 34021 ft | 474 kts | 258° |
| 2026-05-06 22:10 | 50.49073 | -4.91900 | 34024 ft | 474 kts | 258° |
| 2026-05-06 22:11 | 50.47610 | -5.01989 | 34014 ft | 474 kts | 258° |
| 2026-05-06 22:11 | 50.46139 | -5.12071 | 34018 ft | 474 kts | 258° |
| 2026-05-06 22:12 | 50.44658 | -5.22148 | 34022 ft | 474 kts | 257° |
| 2026-05-06 22:12 | 50.43171 | -5.32204 | 34020 ft | 474 kts | 257° |
| 2026-05-06 22:13 | 50.41673 | -5.42275 | 34018 ft | 474 kts | 257° |
| 2026-05-06 22:13 | 50.40166 | -5.52335 | 34014 ft | 474 kts | 257° |
| 2026-05-06 22:14 | 50.38661 | -5.62316 | 34018 ft | 475 kts | 257° |
| 2026-05-06 22:14 | 50.37134 | -5.72389 | 34018 ft | 475 kts | 257° |
| 2026-05-06 22:15 | 50.35596 | -5.82461 | 34023 ft | 475 kts | 257° |
| 2026-05-06 22:15 | 50.34050 | -5.92527 | 34024 ft | 475 kts | 257° |
| 2026-05-06 22:16 | 50.32495 | -6.02584 | 34014 ft | 476 kts | 257° |
| 2026-05-06 22:16 | 50.30928 | -6.12662 | 34017 ft | 477 kts | 257° |
| 2026-05-06 22:17 | 50.29350 | -6.22745 | 34020 ft | 477 kts | 257° |
| 2026-05-06 22:17 | 50.27761 | -6.32835 | 34018 ft | 477 kts | 257° |
| 2026-05-06 22:18 | 50.26166 | -6.42903 | 34016 ft | 477 kts | 257° |
| 2026-05-06 22:18 | 50.24559 | -6.52982 | 34012 ft | 479 kts | 256° |
| 2026-05-06 22:19 | 50.22939 | -6.63081 | 34014 ft | 480 kts | 256° |
| 2026-05-06 22:19 | 50.21311 | -6.73175 | 34014 ft | 479 kts | 256° |
| 2026-05-06 22:20 | 50.19673 | -6.83262 | 34013 ft | 479 kts | 256° |
| 2026-05-06 22:20 | 50.18039 | -6.93264 | 34007 ft | 479 kts | 256° |
| 2026-05-06 22:21 | 50.16374 | -7.03402 | 34012 ft | 479 kts | 256° |
| 2026-05-06 22:21 | 50.14720 | -7.13410 | 34013 ft | 479 kts | 256° |
| 2026-05-06 22:22 | 50.13048 | -7.23466 | 34013 ft | 480 kts | 256° |
| 2026-05-06 22:22 | 50.11366 | -7.33526 | 34016 ft | 480 kts | 256° |
| 2026-05-06 22:23 | 50.09675 | -7.43579 | 34012 ft | 480 kts | 256° |
| 2026-05-06 22:23 | 50.07969 | -7.53660 | 34012 ft | 481 kts | 256° |
| 2026-05-06 22:24 | 50.06255 | -7.63730 | 34013 ft | 481 kts | 255° |
| 2026-05-06 22:24 | 50.04532 | -7.73795 | 34012 ft | 481 kts | 255° |
| 2026-05-06 22:25 | 50.02799 | -7.83862 | 34013 ft | 483 kts | 255° |
| 2026-05-06 22:25 | 50.01048 | -7.93895 | 34012 ft | 485 kts | 253° |
| 2026-05-06 22:26 | 49.98253 | -8.03389 | 34018 ft | 485 kts | 236° |
| 2026-05-06 22:26 | 49.94347 | -8.11930 | 34018 ft | 485 kts | 233° |
| 2026-05-06 22:27 | 49.90266 | -8.20269 | 34017 ft | 486 kts | 232° |
| 2026-05-06 22:27 | 49.86177 | -8.28580 | 34018 ft | 483 kts | 232° |
| 2026-05-06 22:28 | 49.82119 | -8.36870 | 34018 ft | 482 kts | 233° |
| 2026-05-06 22:28 | 49.78070 | -8.45152 | 34017 ft | 482 kts | 233° |
| 2026-05-06 22:29 | 49.74021 | -8.53414 | 34020 ft | 482 kts | 232° |
| 2026-05-06 22:29 | 49.69959 | -8.61673 | 34026 ft | 482 kts | 232° |
| 2026-05-06 22:30 | 49.65885 | -8.69930 | 34023 ft | 484 kts | 232° |
| 2026-05-06 22:30 | 49.61807 | -8.78167 | 34022 ft | 482 kts | 232° |
| 2026-05-06 22:31 | 49.57737 | -8.86363 | 34023 ft | 480 kts | 232° |
| 2026-05-06 22:31 | 49.53673 | -8.94521 | 34018 ft | 480 kts | 232° |
| 2026-05-06 22:32 | 49.49601 | -9.02671 | 34027 ft | 481 kts | 232° |
| 2026-05-06 22:32 | 49.45535 | -9.10783 | 34026 ft | 482 kts | 231° |
| 2026-05-06 22:33 | 49.41436 | -9.18937 | 34028 ft | 483 kts | 231° |
| 2026-05-06 22:33 | 49.37325 | -9.27090 | 34025 ft | 483 kts | 231° |
| 2026-05-06 22:34 | 49.33221 | -9.35205 | 34028 ft | 481 kts | 231° |
| 2026-05-06 22:34 | 49.29118 | -9.43291 | 34026 ft | 480 kts | 231° |
| 2026-05-06 22:35 | 49.25016 | -9.51353 | 34025 ft | 480 kts | 231° |
| 2026-05-06 22:35 | 49.20900 | -9.59416 | 34029 ft | 480 kts | 231° |
| 2026-05-06 22:36 | 49.17480 | -9.66099 | 34033 ft | 480 kts | 231° |
| 2026-05-06 22:36 | 49.13359 | -9.74127 | 34028 ft | 480 kts | 231° |
| 2026-05-06 22:37 | 49.09226 | -9.82157 | 34031 ft | 481 kts | 231° |
| 2026-05-06 22:37 | 49.05096 | -9.90156 | 34032 ft | 480 kts | 231° |
| 2026-05-06 22:38 | 49.00956 | -9.98149 | 34033 ft | 480 kts | 231° |
| 2026-05-06 22:38 | 48.96782 | -10.06077 | 34033 ft | 480 kts | 230° |
| 2026-05-06 22:39 | 48.92518 | -10.13871 | 34041 ft | 480 kts | 229° |
| 2026-05-06 22:39 | 48.88237 | -10.21663 | 34031 ft | 481 kts | 229° |
| 2026-05-06 22:40 | 48.83950 | -10.29486 | 34035 ft | 481 kts | 229° |
| 2026-05-06 22:40 | 48.79676 | -10.37288 | 34033 ft | 480 kts | 229° |
| 2026-05-06 22:41 | 48.73160 | -10.48711 | 34035 ft | 479 kts | 222° |
| 2026-05-06 22:42 | 48.67885 | -10.54860 | 34036 ft | 479 kts | 214° |
| 2026-05-06 22:42 | 48.62357 | -10.60519 | 34032 ft | 479 kts | 213° |
| 2026-05-06 22:43 | 48.56802 | -10.66093 | 34035 ft | 479 kts | 213° |
| 2026-05-06 22:43 | 48.51272 | -10.71662 | 34031 ft | 477 kts | 213° |
| 2026-05-06 22:44 | 48.45760 | -10.77226 | 34033 ft | 477 kts | 213° |
| 2026-05-06 22:44 | 48.40246 | -10.82788 | 34041 ft | 477 kts | 213° |
| 2026-05-06 22:45 | 48.34707 | -10.88359 | 34020 ft | 479 kts | 213° |
| 2026-05-06 22:45 | 48.29154 | -10.93928 | 34041 ft | 480 kts | 213° |
| 2026-05-06 22:46 | 48.23604 | -10.99479 | 34038 ft | 480 kts | 213° |
| 2026-05-06 22:46 | 48.18043 | -11.05026 | 34040 ft | 480 kts | 213° |
| 2026-05-06 22:47 | 48.12520 | -11.10519 | 34042 ft | 480 kts | 213° |
| 2026-05-06 22:47 | 48.06961 | -11.16034 | 34026 ft | 479 kts | 213° |
| 2026-05-06 22:48 | 48.01393 | -11.21544 | 34048 ft | 480 kts | 213° |
| 2026-05-06 22:48 | 47.95818 | -11.27048 | 34047 ft | 480 kts | 213° |
| 2026-05-06 22:49 | 47.90235 | -11.32544 | 34043 ft | 480 kts | 213° |
| 2026-05-06 22:49 | 47.84656 | -11.38020 | 34043 ft | 480 kts | 213° |
| 2026-05-06 22:50 | 47.79075 | -11.43486 | 34044 ft | 480 kts | 213° |
| 2026-05-06 22:50 | 47.73491 | -11.48940 | 34049 ft | 482 kts | 213° |
| 2026-05-06 22:51 | 47.67876 | -11.54411 | 34031 ft | 483 kts | 213° |
| 2026-05-06 22:51 | 47.62259 | -11.59867 | 34047 ft | 482 kts | 213° |
| 2026-05-06 22:52 | 47.56650 | -11.65302 | 34049 ft | 482 kts | 213° |
| 2026-05-06 22:52 | 47.51034 | -11.70731 | 34046 ft | 482 kts | 213° |
| 2026-05-06 22:53 | 47.45458 | -11.76106 | 34050 ft | 482 kts | 214° |
| 2026-05-06 22:53 | 47.39807 | -11.81540 | 34036 ft | 486 kts | 214° |
| 2026-05-06 22:54 | 47.34160 | -11.86955 | 34048 ft | 484 kts | 214° |
| 2026-05-06 22:54 | 47.28516 | -11.92355 | 34049 ft | 484 kts | 214° |
| 2026-05-06 22:55 | 47.22855 | -11.97756 | 34049 ft | 484 kts | 214° |
| 2026-05-06 22:55 | 47.17209 | -12.03129 | 34049 ft | 484 kts | 214° |
| 2026-05-06 22:56 | 47.11538 | -12.08510 | 34044 ft | 486 kts | 215° |
| 2026-05-06 22:56 | 47.05839 | -12.13907 | 34048 ft | 488 kts | 215° |
| 2026-05-06 22:57 | 47.00140 | -12.19289 | 34047 ft | 488 kts | 215° |
| 2026-05-06 22:57 | 46.94438 | -12.24660 | 34050 ft | 488 kts | 215° |
| 2026-05-06 22:58 | 46.88726 | -12.30025 | 34051 ft | 487 kts | 215° |
| 2026-05-06 22:58 | 46.83020 | -12.35370 | 34050 ft | 488 kts | 216° |
| 2026-05-06 22:59 | 46.77311 | -12.40708 | 34054 ft | 491 kts | 216° |